Time;durP1;ratioP1;P1;durP2;ratioP2;P2;SDS_P1;SDS_P2;PMS_P1;PMS_P2;Temp;Humidity;BMP_temperature;BMP_pressure;BME280_temperature;BME280_humidity;BME280_pressure;Samples;Min_cycle;Max_cycle;Signal;HPM_P1;HPM_P2
2022/05/24 00:01:10;;;;;;;9.60;5.85;;;;;;;15.48;100.00;97365.97;5053883;28;20096;-71
2022/05/24 00:03:36;;;;;;;8.30;5.00;;;;;;;15.46;100.00;97354.59;5055017;28;20059;-71
2022/05/24 00:06:01;;;;;;;6.88;4.88;;;;;;;15.38;100.00;97354.22;5064683;28;20049;-71
2022/05/24 00:08:27;;;;;;;12.13;5.85;;;;;;;15.43;100.00;97345.94;5049153;28;20029;-71
2022/05/24 00:10:53;;;;;;;9.85;6.70;;;;;;;15.43;100.00;97353.91;5055421;28;20370;-71
2022/05/24 00:13:18;;;;;;;8.45;6.78;;;;;;;15.51;100.00;97349.88;5064560;28;20021;-71
2022/05/24 00:15:44;;;;;;;9.52;6.05;;;;;;;15.51;100.00;97349.88;5064334;28;20074;-71
2022/05/24 00:18:25;;;;;;;6.53;4.65;;;;;;;15.56;100.00;97347.78;5062852;28;20032;-71
2022/05/24 00:20:56;;;;;;;7.97;5.03;;;;;;;15.54;100.00;97352.34;5064428;28;20066;-71
2022/05/24 00:23:24;;;;;;;8.77;6.37;;;;;;;15.57;100.00;97338.91;5055522;28;20029;-71
2022/05/24 00:25:53;;;;;;;13.73;6.28;;;;;;;15.57;100.00;97344.22;5064385;28;20080;-71
2022/05/24 00:28:21;;;;;;;10.18;6.07;;;;;;;15.61;100.00;97337.78;5062777;28;20032;-71
2022/05/24 00:30:48;;;;;;;10.00;6.13;;;;;;;15.61;100.00;97345.75;5048757;28;20028;-71
2022/05/24 00:33:15;;;;;;;15.32;7.18;;;;;;;15.66;100.00;97343.66;5064229;28;20025;-71
2022/05/24 00:35:41;;;;;;;9.32;6.63;;;;;;;15.69;100.00;97343.47;5053267;28;20052;-71
2022/05/24 00:38:10;;;;;;;11.77;7.40;;;;;;;15.70;100.00;97339.03;5049601;28;20328;-71
2022/05/24 00:40:56;;;;;;;9.43;6.70;;;;;;;15.77;100.00;97351.84;5063525;28;20024;-71
2022/05/24 00:43:33;;;;;;;13.50;6.70;;;;;;;15.77;100.00;97341.22;5044581;28;20067;-71
2022/05/24 00:46:22;;;;;;;10.90;7.03;;;;;;;15.80;100.00;97349.00;5054432;28;20024;-71
2022/05/24 00:49:06;;;;;;;7.38;5.68;;;;;;;15.84;100.00;97352.31;5047358;28;20033;-71
2022/05/24 00:51:43;;;;;;;6.30;4.72;;;;;;;15.84;100.00;97363.78;5055969;28;20024;-71
2022/05/24 00:54:09;;;;;;;6.45;5.13;;;;;;;15.85;100.00;97359.34;5063538;28;20086;-71
2022/05/24 00:56:50;;;;;;;7.63;4.85;;;;;;;15.78;100.00;97358.84;5063693;28;20021;-71
2022/05/24 00:59:35;;;;;;;8.02;5.32;;;;;;;15.80;100.00;97346.34;5055221;28;20313;-71
2022/05/24 01:02:02;;;;;;;7.57;4.97;;;;;;;15.67;100.00;97353.34;5057719;28;20025;-71
2022/05/24 01:04:27;;;;;;;6.22;4.68;;;;;;;15.68;100.00;97355.03;5044542;28;20025;-71
2022/05/24 01:06:53;;;;;;;5.82;4.32;;;;;;;15.67;100.00;97350.69;5045284;28;20209;-71
2022/05/24 01:09:36;;;;;;;6.63;4.60;;;;;;;15.65;100.00;97347.25;5057585;28;20067;-71
2022/05/24 01:12:09;;;;;;;10.25;4.30;;;;;;;15.63;100.00;97349.13;5045266;28;20350;-71
2022/05/24 01:14:35;;;;;;;5.57;3.90;;;;;;;15.59;100.00;97342.31;5044091;28;20041;-71
2022/05/24 01:17:02;;;;;;;4.88;3.38;;;;;;;15.50;100.00;97334.06;5044053;28;20025;-71
2022/05/24 01:19:44;;;;;;;6.75;4.05;;;;;;;15.49;100.00;97338.50;5052622;28;20096;-71
2022/05/24 01:22:38;;;;;;;5.13;3.72;;;;;;;15.43;100.00;97354.78;5044029;28;20029;-71
2022/05/24 01:25:06;;;;;;;5.20;3.58;;;;;;;15.36;100.00;97355.19;5043733;28;20017;-71
2022/05/24 01:27:32;;;;;;;9.40;3.83;;;;;;;15.43;100.00;97360.06;5058110;28;20029;-71
2022/05/24 01:29:58;;;;;;;5.68;3.53;;;;;;;15.33;100.00;97356.22;5063063;28;20347;-71
2022/05/24 01:37:52;;;;;;;8.55;3.17;;;;;;;15.21;100.00;97351.63;5057092;28;20024;-71
2022/05/24 01:40:18;;;;;;;4.50;3.17;;;;;;;15.28;99.96;97350.31;5047468;28;20032;-71
2022/05/24 01:42:44;;;;;;;6.82;3.55;;;;;;;15.29;99.64;97357.34;5067691;28;20305;-71
2022/05/24 01:45:15;;;;;;;5.90;3.42;;;;;;;15.31;99.59;97352.78;5052509;28;20205;-71
2022/05/24 01:47:44;;;;;;;9.10;3.70;;;;;;;15.26;99.40;97354.88;5049823;28;20225;-71
2022/05/24 01:50:15;;;;;;;5.90;3.53;;;;;;;15.35;98.81;97354.34;5061691;28;20333;-71
2022/05/24 01:52:59;;;;;;;5.32;3.22;;;;;;;15.28;98.71;97342.38;5047831;28;20021;-71
2022/05/24 01:55:48;;;;;;;9.10;3.53;;;;;;;15.31;99.22;97352.78;5053854;28;20033;-71
2022/05/24 01:58:16;;;;;;;6.80;3.85;;;;;;;15.28;99.69;97352.13;5052246;28;20041;-71
2022/05/24 02:00:46;;;;;;;7.20;2.83;;;;;;;15.23;98.95;97349.75;5059342;28;20035;-71
2022/05/24 02:03:12;;;;;;;5.38;2.47;;;;;;;15.23;99.30;97344.47;5047758;28;20029;-71
2022/05/24 02:05:41;;;;;;;5.57;3.47;;;;;;;15.17;99.46;97344.81;5047518;28;20056;-71
2022/05/24 02:08:08;;;;;;;5.95;3.78;;;;;;;15.21;100.00;97346.31;5065043;28;20051;-71
2022/05/24 02:10:55;;;;;;;4.82;3.30;;;;;;;15.17;99.01;97342.16;5058507;28;20032;-71
2022/05/24 02:13:29;;;;;;;6.93;3.17;;;;;;;15.20;98.84;97339.31;5066550;28;20025;-71
2022/05/24 02:15:59;;;;;;;3.75;2.53;;;;;;;15.27;98.45;97335.38;5066725;28;20029;-71
2022/05/24 02:18:26;;;;;;;3.58;2.40;;;;;;;15.23;98.69;97339.16;5048917;28;20328;-71
2022/05/24 02:20:52;;;;;;;2.95;2.58;;;;;;;15.19;98.79;97333.16;5047320;28;20021;-71
2022/05/24 02:23:19;;;;;;;4.32;2.40;;;;;;;15.23;99.02;97331.19;5048427;28;20036;-71
2022/05/24 02:25:52;;;;;;;3.17;2.40;;;;;;;15.23;99.47;97326.72;5047451;28;20324;-71
2022/05/24 02:28:20;;;;;;;4.68;2.53;;;;;;;15.22;99.91;97329.47;5047179;28;20026;-71
2022/05/24 02:30:56;;;;;;;3.33;2.50;;;;;;;15.16;100.00;97316.59;5055597;28;20113;-71
2022/05/24 02:36:44;;;;;;;4.63;2.97;;;;;;;15.07;100.00;97317.97;5047010;28;20025;-71
2022/05/24 02:39:09;;;;;;;7.03;2.50;;;;;;;15.14;100.00;97318.47;5046932;28;20092;-71
2022/05/24 02:41:36;;;;;;;4.63;2.70;;;;;;;15.09;100.00;97320.53;5061228;28;20201;-71
2022/05/24 02:44:11;;;;;;;7.60;2.90;;;;;;;15.00;100.00;97321.09;5055069;28;20021;-71
2022/05/24 02:46:39;;;;;;;4.35;3.00;;;;;;;15.00;100.00;97321.91;5048151;28;20305;-71
2022/05/24 02:49:05;;;;;;;7.43;3.13;;;;;;;14.94;100.00;97316.13;5046596;28;20087;-71
2022/05/24 02:51:31;;;;;;;5.38;2.83;;;;;;;14.95;100.00;97315.19;5046458;28;20239;-71
2022/05/24 02:53:56;;;;;;;4.75;2.78;;;;;;;14.94;100.00;97326.72;5052284;28;20029;-71
2022/05/24 02:56:22;;;;;;;5.75;3.00;;;;;;;14.97;100.00;97315.97;5065700;28;20025;-71
2022/05/24 02:58:48;;;;;;;4.20;2.53;;;;;;;14.97;100.00;97315.97;5066003;28;20024;-71
2022/05/24 03:01:20;;;;;;;4.00;2.45;;;;;;;15.02;100.00;97308.59;5060014;28;20025;-71
2022/05/24 03:03:48;;;;;;;2.88;2.25;;;;;;;14.91;100.00;97303.06;5047697;28;20028;-71
2022/05/24 03:06:16;;;;;;;2.50;2.05;;;;;;;14.90;100.00;97311.94;5066118;28;20099;-71
2022/05/24 03:11:25;;;;;;;2.65;1.98;;;;;;;14.88;100.00;97316.47;5065751;28;20046;-71
2022/05/24 03:16:35;;;;;;;2.92;1.85;;;;;;;14.84;100.00;97317.59;5046427;28;20028;-71
2022/05/24 03:19:00;;;;;;;3.30;1.58;;;;;;;14.82;100.00;97322.13;5048335;28;20029;-71
2022/05/24 03:21:26;;;;;;;6.30;2.38;;;;;;;14.86;100.00;97328.94;5047400;28;20034;-71
2022/05/24 03:23:51;;;;;;;6.15;2.00;;;;;;;14.85;100.00;97327.25;5046302;28;20025;-71
2022/05/24 03:26:17;;;;;;;3.05;1.90;;;;;;;14.86;100.00;97329.81;5046036;28;20075;-71
2022/05/24 03:28:43;;;;;;;2.75;2.08;;;;;;;14.80;100.00;97326.66;5053983;28;20051;-71
2022/05/24 03:31:09;;;;;;;7.28;2.17;;;;;;;14.78;100.00;97315.31;5045958;28;20031;-71
2022/05/24 03:33:35;;;;;;;2.20;1.90;;;;;;;14.76;100.00;97311.88;5062549;28;20029;-71
2022/05/24 03:36:01;;;;;;;3.17;1.77;;;;;;;14.78;100.00;97310.00;5062952;28;20255;-71
2022/05/24 03:38:28;;;;;;;8.65;1.40;;;;;;;14.87;100.00;97312.09;5051470;28;20020;-71
2022/05/24 03:40:54;;;;;;;3.75;1.70;;;;;;;14.88;100.00;97324.44;5065012;28;20028;-71
2022/05/24 03:43:20;;;;;;;2.08;1.67;;;;;;;14.90;100.00;97314.56;5060895;28;20253;-71
2022/05/24 03:45:46;;;;;;;1.92;1.45;;;;;;;14.86;100.00;97308.63;5046761;28;20020;-71
2022/05/24 03:48:12;;;;;;;1.75;1.20;;;;;;;14.93;99.75;97325.00;5045697;28;20029;-71
2022/05/24 03:50:37;;;;;;;7.78;1.30;;;;;;;14.91;100.00;97326.91;5050363;28;20143;-71
2022/05/24 03:53:03;;;;;;;1.60;1.20;;;;;;;14.81;100.00;97325.72;5058420;28;20029;-71
2022/05/24 03:55:29;;;;;;;1.40;1.10;;;;;;;14.87;100.00;97328.88;5045476;28;20272;-71
2022/05/24 03:58:00;;;;;;;3.03;1.55;;;;;;;14.90;100.00;97330.47;5057906;28;20029;-71
2022/05/24 04:00:38;;;;;;;2.47;1.30;;;;;;;14.89;100.00;97328.78;5064826;28;20024;-71
2022/05/24 04:03:05;;;;;;;2.58;1.10;;;;;;;14.91;99.61;97338.34;5048469;28;20062;-71
2022/05/24 04:05:31;;;;;;;1.33;1.20;;;;;;;14.93;99.52;97325.00;5047725;28;20025;-71
2022/05/24 04:07:58;;;;;;;1.58;1.27;;;;;;;14.99;99.91;97327.31;5053133;28;20033;-71
2022/05/24 04:10:23;;;;;;;1.98;1.20;;;;;;;14.97;99.47;97327.38;5065244;28;20216;-71
2022/05/24 04:12:49;;;;;;;1.10;1.00;;;;;;;15.05;99.47;97333.13;5063986;28;20062;-71
2022/05/24 04:15:15;;;;;;;3.90;1.60;;;;;;;14.97;99.12;97345.09;5065139;28;20040;-71
2022/05/24 04:17:41;;;;;;;1.48;1.35;;;;;;;14.93;99.56;97356.78;5065121;28;20031;-71
2022/05/24 04:20:07;;;;;;;3.25;1.10;;;;;;;14.93;99.63;97354.16;5064908;28;20020;-71
2022/05/24 04:22:33;;;;;;;9.82;1.40;;;;;;;14.97;99.89;97390.16;5065205;28;20051;-71
2022/05/24 04:24:59;;;;;;;2.17;0.90;;;;;;;14.83;99.72;97398.00;5064934;28;20021;-71
2022/05/24 04:27:24;;;;;;;0.85;0.60;;;;;;;14.74;98.57;97414.38;5064859;28;20320;-71
2022/05/24 04:29:53;;;;;;;0.70;0.57;;;;;;;14.69;97.42;97416.44;5064854;28;20043;-71
2022/05/24 04:32:20;;;;;;;1.05;0.70;;;;;;;14.62;97.41;97404.50;5064738;28;20024;-71
2022/05/24 04:34:45;;;;;;;0.50;0.50;;;;;;;14.57;97.90;97399.44;5064681;28;20020;-71
2022/05/24 04:37:11;;;;;;;5.15;0.75;;;;;;;14.50;97.98;97407.81;5064723;28;20090;-71
2022/05/24 04:39:36;;;;;;;1.13;0.43;;;;;;;14.43;97.75;97424.97;5064893;28;20044;-71
2022/05/24 04:44:52;;;;;;;0.60;0.60;;;;;;;14.44;99.15;97431.97;5064585;28;20028;-71
2022/05/24 04:47:20;;;;;;;1.70;1.60;;;;;;;14.47;99.08;97437.09;5064502;28;20240;-71
2022/05/24 04:49:54;;;;;;;2.65;0.88;;;;;;;14.39;98.91;97433.97;5064393;28;20348;-71
2022/05/24 04:52:21;;;;;;;0.73;0.52;;;;;;;14.46;97.06;97444.16;5064472;28;20031;-71
2022/05/24 04:54:47;;;;;;;1.10;0.68;;;;;;;14.44;97.79;97442.53;5064316;28;20097;-71
2022/05/24 04:57:13;;;;;;;2.20;0.73;;;;;;;14.33;98.77;97458.16;5064386;28;20025;-71
2022/05/24 04:59:39;;;;;;;7.95;0.95;;;;;;;14.29;99.05;97460.09;5064233;28;20025;-71
2022/05/24 05:02:05;;;;;;;1.67;0.70;;;;;;;14.40;98.62;97463.00;5064190;28;20032;-71
2022/05/24 05:04:31;;;;;;;2.42;0.90;;;;;;;14.40;99.16;97462.19;5064237;28;20029;-71
2022/05/24 05:06:57;;;;;;;0.70;0.60;;;;;;;14.41;98.12;97471.81;5064157;28;20021;-71
2022/05/24 05:09:23;;;;;;;2.78;0.50;;;;;;;14.34;98.17;97465.97;5064159;28;20252;-71
2022/05/24 05:11:48;;;;;;;2.63;0.52;;;;;;;14.27;98.71;97466.41;5064146;28;20025;-71
2022/05/24 05:14:14;;;;;;;1.13;0.90;;;;;;;14.44;98.88;97461.06;5064107;28;20031;-71
2022/05/24 05:16:40;;;;;;;1.40;0.98;;;;;;;14.40;97.51;97467.47;5063919;28;20093;-71
2022/05/24 05:19:08;;;;;;;1.05;0.70;;;;;;;14.44;98.76;97475.19;5064264;28;20020;-71
2022/05/24 05:21:36;;;;;;;2.75;1.00;;;;;;;14.50;97.17;97474.00;5063955;28;20032;-71
2022/05/24 05:24:04;;;;;;;0.80;0.80;;;;;;;14.42;97.49;97470.88;5063967;28;20025;-71
2022/05/24 05:26:29;;;;;;;2.88;0.93;;;;;;;14.46;97.70;97475.09;5063803;28;20343;-71
2022/05/24 05:28:55;;;;;;;1.65;1.08;;;;;;;14.67;98.48;97495.97;5063890;28;20025;-71
2022/05/24 05:31:25;;;;;;;1.65;0.98;;;;;;;14.82;97.85;97507.53;5063854;28;20025;-71
2022/05/24 05:33:51;;;;;;;2.33;0.73;;;;;;;14.82;97.11;97523.44;5063847;28;20017;-71
2022/05/24 05:36:18;;;;;;;4.38;0.77;;;;;;;14.82;95.84;97534.91;5063732;28;20033;-71
2022/05/24 05:38:48;;;;;;;2.70;1.13;;;;;;;14.74;97.15;97538.88;5063781;28;20028;-71
2022/05/24 05:41:19;;;;;;;1.30;0.77;;;;;;;14.68;96.68;97547.19;5063831;28;20391;-71
2022/05/24 05:43:45;;;;;;;2.47;1.13;;;;;;;14.68;97.20;97545.34;5063734;28;20028;-71
2022/05/24 05:46:12;;;;;;;1.40;0.95;;;;;;;14.58;97.29;97556.50;5063758;28;20047;-71
2022/05/24 05:48:39;;;;;;;1.35;0.75;;;;;;;14.56;97.71;97559.22;5063538;28;20024;-71
2022/05/24 05:51:06;;;;;;;3.85;1.20;;;;;;;14.48;97.61;97549.97;5063607;28;20224;-71
2022/05/24 05:53:31;;;;;;;1.00;0.80;;;;;;;14.40;97.70;97553.03;5063674;28;20252;-71
2022/05/24 05:55:57;;;;;;;0.70;0.70;;;;;;;14.37;98.01;97545.22;5063615;28;20071;-71
2022/05/24 05:58:23;;;;;;;1.08;0.75;;;;;;;14.53;98.64;97547.97;5063626;28;20029;-71
2022/05/24 06:00:49;;;;;;;2.17;1.00;;;;;;;14.63;97.83;97554.50;5063567;28;20123;-71
2022/05/24 06:03:15;;;;;;;4.10;0.80;;;;;;;14.54;97.12;97560.25;5063599;28;20028;-71
2022/05/24 06:05:43;;;;;;;1.83;1.20;;;;;;;14.70;96.28;97561.16;5063653;28;20247;-71
2022/05/24 06:08:09;;;;;;;0.88;0.80;;;;;;;14.53;97.16;97564.69;5063542;28;20024;-71
2022/05/24 06:10:36;;;;;;;2.10;1.25;;;;;;;14.59;98.15;97564.38;5063535;28;20253;-71
2022/05/24 06:13:03;;;;;;;1.50;1.00;;;;;;;14.60;97.61;97565.25;5063476;28;20090;-71
2022/05/24 06:15:28;;;;;;;1.20;1.00;;;;;;;14.75;96.69;97569.75;5063651;28;20261;-71
2022/05/24 06:17:54;;;;;;;1.00;0.70;;;;;;;14.82;96.79;97581.72;5063455;28;20028;-71
2022/05/24 06:20:23;;;;;;;2.08;1.10;;;;;;;14.82;95.54;97587.03;5063463;28;20025;-71
2022/05/24 06:22:52;;;;;;;1.02;0.82;;;;;;;14.75;95.72;97594.41;5063413;28;20025;-71
2022/05/24 06:25:18;;;;;;;2.40;0.70;;;;;;;14.80;95.69;97594.19;5064626;28;20048;-71
2022/05/24 06:27:44;;;;;;;1.55;0.68;;;;;;;14.80;95.58;97600.34;5067120;28;20036;-71
2022/05/24 06:30:09;;;;;;;3.05;0.80;;;;;;;14.77;95.96;97604.94;5067084;28;20021;-71
2022/05/24 06:32:35;;;;;;;2.35;1.00;;;;;;;14.89;95.86;97606.94;5067078;28;20092;-71
2022/05/24 06:35:00;;;;;;;2.05;0.73;;;;;;;15.11;94.49;97599.56;5066944;28;20027;-71
2022/05/24 06:37:26;;;;;;;0.52;0.52;;;;;;;15.26;93.72;97596.09;5066972;28;20058;-71
2022/05/24 06:39:51;;;;;;;2.30;0.82;;;;;;;15.35;92.68;97597.41;5066919;28;20017;-71
2022/05/24 06:42:17;;;;;;;2.30;0.90;;;;;;;15.51;91.70;97591.22;5066805;28;20016;-71
2022/05/24 06:44:43;;;;;;;2.13;0.90;;;;;;;16.38;89.21;97604.72;5066878;28;20055;-71
2022/05/24 06:47:09;;;;;;;1.70;0.70;;;;;;;16.52;88.91;97609.25;5067056;28;20028;-71
2022/05/24 06:49:36;;;;;;;2.28;0.80;;;;;;;16.13;89.54;97609.72;5066578;28;20233;-71
2022/05/24 06:52:02;;;;;;;1.23;0.93;;;;;;;16.62;88.00;97611.28;5066715;28;20020;-71
2022/05/24 06:54:27;;;;;;;6.28;0.93;;;;;;;16.65;86.00;97605.75;5066579;28;20028;-71
2022/05/24 06:56:53;;;;;;;0.60;0.60;;;;;;;16.23;87.27;97605.59;5066576;28;20032;-71
2022/05/24 07:04:46;;;;;;;1.45;0.60;;;;;;;18.30;79.65;97622.75;5066508;28;20027;-71
2022/05/24 07:07:12;;;;;;;1.75;0.75;;;;;;;17.96;79.50;97607.28;5066408;28;20040;-71
2022/05/24 07:09:40;;;;;;;1.65;0.90;;;;;;;19.30;76.84;97616.81;5066411;28;20044;-71
2022/05/24 07:12:06;;;;;;;1.35;0.63;;;;;;;19.85;74.78;97631.47;5066619;28;20267;-71
2022/05/24 07:14:34;;;;;;;0.80;0.63;;;;;;;18.85;74.83;97620.78;5066231;28;20096;-71
2022/05/24 07:16:59;;;;;;;4.40;0.90;;;;;;;20.06;71.86;97629.88;5066101;28;20329;-71
2022/05/24 07:19:25;;;;;;;4.53;0.68;;;;;;;20.74;69.28;97622.97;5066222;28;20027;-71
2022/05/24 07:21:51;;;;;;;0.82;0.60;;;;;;;21.47;67.53;97628.88;5066422;28;20021;-71
2022/05/24 07:24:17;;;;;;;0.77;0.60;;;;;;;21.60;65.87;97615.34;5066105;28;20213;-71
2022/05/24 07:26:43;;;;;;;0.90;0.50;;;;;;;21.24;65.33;97616.44;5066102;28;20017;-71
2022/05/24 07:29:08;;;;;;;0.60;0.60;;;;;;;20.98;67.55;97621.13;5065957;28;20033;-71
2022/05/24 07:31:34;;;;;;;1.85;0.80;;;;;;;21.09;67.87;97618.50;5065955;28;20197;-71
2022/05/24 07:34:00;;;;;;;2.47;0.93;;;;;;;21.42;67.22;97627.53;5065908;28;20024;-71
2022/05/24 07:36:26;;;;;;;1.95;0.70;;;;;;;20.72;67.19;97624.03;5064795;28;20021;-71
2022/05/24 07:38:51;;;;;;;1.58;1.00;;;;;;;21.01;67.15;97615.53;5065711;28;20092;-71
2022/05/24 07:46:44;;;;;;;0.85;0.65;;;;;;;22.05;66.03;97641.19;5065750;28;20398;-71
2022/05/24 07:49:10;;;;;;;0.63;0.50;;;;;;;21.51;65.56;97634.84;5065364;28;20040;-71
2022/05/24 07:51:35;;;;;;;2.72;0.93;;;;;;;21.61;65.62;97646.53;5065583;28;20066;-71
2022/05/24 07:54:01;;;;;;;0.60;0.60;;;;;;;21.72;65.09;97634.00;5065517;28;20295;-71
2022/05/24 07:56:27;;;;;;;1.33;0.77;;;;;;;22.60;63.56;97662.53;5065670;28;20041;-71
2022/05/24 07:58:54;;;;;;;0.95;0.75;;;;;;;22.07;63.14;97661.53;5065488;28;20261;-71
2022/05/24 08:01:19;;;;;;;0.73;0.70;;;;;;;21.55;65.76;97673.78;5065411;28;20216;-71
2022/05/24 08:03:46;;;;;;;1.63;0.80;;;;;;;21.47;65.90;97681.56;5065506;28;20053;-71
2022/05/24 08:06:12;;;;;;;0.70;0.70;;;;;;;22.45;61.62;97678.03;5065286;28;20084;-71
2022/05/24 08:08:38;;;;;;;1.65;1.00;;;;;;;21.61;66.00;97678.69;5065230;28;20025;-71
2022/05/24 08:11:05;;;;;;;0.80;0.80;;;;;;;21.64;65.23;97681.13;5065231;28;20046;-71
2022/05/24 08:13:31;;;;;;;0.70;0.60;;;;;;;21.27;62.87;97675.91;5065182;28;20046;-71
2022/05/24 08:15:56;;;;;;;0.82;0.80;;;;;;;20.74;65.46;97689.84;5065013;28;20312;-71
2022/05/24 08:18:24;;;;;;;2.78;1.00;;;;;;;19.52;67.75;97681.88;5065089;28;20079;-71
2022/05/24 08:20:50;;;;;;;0.88;0.70;;;;;;;18.97;68.82;97673.28;5064950;28;20017;-71
2022/05/24 08:23:18;;;;;;;0.47;0.47;;;;;;;18.88;70.09;97695.25;5065054;28;20055;-71
2022/05/24 08:25:44;;;;;;;2.58;0.52;;;;;;;18.48;71.22;97697.03;5065025;28;20017;-71
2022/05/24 08:28:10;;;;;;;1.10;0.50;;;;;;;18.39;71.73;97697.66;5064825;28;20021;-71
2022/05/24 08:30:37;;;;;;;0.80;0.57;;;;;;;18.66;71.98;97692.28;5064823;28;20027;-71
2022/05/24 08:33:04;;;;;;;1.15;0.50;;;;;;;19.24;70.99;97700.75;5064795;28;20024;-71
2022/05/24 08:35:32;;;;;;;0.65;0.50;;;;;;;20.00;70.12;97704.28;5064680;28;20092;-71
2022/05/24 08:37:59;;;;;;;1.00;0.57;;;;;;;20.35;69.19;97708.78;5064913;28;20078;-71
2022/05/24 08:40:24;;;;;;;1.38;0.57;;;;;;;19.80;68.37;97697.69;5064665;28;20025;-71
2022/05/24 08:43:27;;;;;;;0.65;0.55;;;;;;;20.27;68.33;97713.88;5064589;28;20092;-71
2022/05/24 08:48:51;;;;;;;0.45;0.40;;;;;;;21.68;63.68;97704.84;5064075;28;19947;-71
2022/05/24 08:51:46;;;;;;;1.00;0.40;;;;;;;20.43;64.84;97714.44;5064689;28;20317;-71
2022/05/24 08:54:18;;;;;;;2.10;0.95;;;;;;;20.43;65.71;97725.16;5064475;28;20044;-71
2022/05/24 08:56:52;;;;;;;4.90;0.73;;;;;;;21.08;64.99;97729.16;5064336;28;20047;-71
2022/05/24 08:59:33;;;;;;;0.40;0.30;;;;;;;21.72;60.73;97721.53;5064363;28;20056;-71
2022/05/24 09:01:59;;;;;;;1.95;0.52;;;;;;;21.08;64.42;97729.16;5064200;28;20025;-71
2022/05/24 09:04:25;;;;;;;0.95;0.60;;;;;;;21.24;63.32;97740.41;5064248;28;20028;-71
2022/05/24 09:07:08;;;;;;;0.68;0.50;;;;;;;20.39;64.69;97722.81;5064197;28;20044;-71
2022/05/24 09:10:03;;;;;;;1.40;0.77;;;;;;;22.38;62.01;97740.31;5064153;28;20035;-71
2022/05/24 09:12:50;;;;;;;1.52;0.40;;;;;;;20.51;63.25;97733.47;5063502;28;20032;-71
2022/05/24 09:15:27;;;;;;;1.33;0.30;;;;;;;19.40;60.21;97732.59;5064115;28;20021;-71
2022/05/24 09:18:19;;;;;;;0.20;0.20;;;;;;;18.21;61.71;97736.09;5064114;28;20040;-71
2022/05/24 09:20:45;;;;;;;1.15;0.43;;;;;;;17.68;65.35;97741.25;5064097;28;20056;-71
2022/05/24 09:23:31;;;;;;;1.75;0.50;;;;;;;17.69;68.32;97747.44;5063961;28;20032;-71
2022/05/24 09:26:01;;;;;;;1.30;0.50;;;;;;;17.56;69.34;97746.50;5063941;28;20239;-71
2022/05/24 09:28:50;;;;;;;1.85;0.55;;;;;;;17.57;70.13;97742.88;5063867;28;20378;-71
2022/05/24 09:31:37;;;;;;;3.47;0.60;;;;;;;17.58;74.22;97733.94;5063986;28;20277;-71
2022/05/24 09:34:16;;;;;;;1.02;0.50;;;;;;;17.63;75.63;97753.13;5063861;28;20024;-71
2022/05/24 09:36:56;;;;;;;2.38;0.70;;;;;;;17.42;76.00;97735.78;5063767;28;20252;-71
2022/05/24 09:39:32;;;;;;;1.63;0.60;;;;;;;18.91;74.33;97753.69;5063866;28;20043;-71
2022/05/24 09:42:14;;;;;;;1.45;0.77;;;;;;;18.80;71.89;97750.91;5064083;28;20045;-71
2022/05/24 09:44:58;;;;;;;1.48;0.68;;;;;;;18.04;74.02;97759.41;5063783;28;20025;-71
2022/05/24 09:47:38;;;;;;;2.38;0.60;;;;;;;17.33;75.70;97765.63;5064056;28;20033;-71
2022/05/24 09:50:24;;;;;;;0.55;0.40;;;;;;;17.52;74.71;97776.91;5063619;28;20052;-71
2022/05/24 09:53:02;;;;;;;1.08;0.55;;;;;;;17.96;75.13;97772.34;5063697;28;20052;-71
2022/05/24 09:55:29;;;;;;;0.70;0.60;;;;;;;18.18;72.22;97767.38;5063637;28;20028;-71
2022/05/24 09:58:21;;;;;;;3.50;0.80;;;;;;;18.58;71.60;97762.09;5063706;28;20021;-71
2022/05/24 10:01:14;;;;;;;3.30;0.73;;;;;;;19.81;70.19;97762.63;5065454;28;20032;-71
2022/05/24 10:03:41;;;;;;;2.28;0.43;;;;;;;20.36;67.40;97761.31;5049541;28;20017;-71
2022/05/24 10:06:09;;;;;;;3.13;0.50;;;;;;;20.64;65.25;97750.31;5067566;28;20021;-71
2022/05/24 10:08:46;;;;;;;1.02;0.45;;;;;;;21.43;62.42;97757.75;5067550;28;20243;-71
2022/05/24 10:11:38;;;;;;;2.25;0.40;;;;;;;22.05;60.83;97759.94;5067567;28;20027;-71
2022/05/24 10:14:22;;;;;;;0.68;0.40;;;;;;;21.61;58.06;97759.00;5067495;28;20320;-71
2022/05/24 10:17:00;;;;;;;2.20;0.63;;;;;;;22.19;56.94;97756.19;5067559;28;20245;-71
2022/05/24 10:20:03;;;;;;;0.40;0.40;;;;;;;22.58;55.58;97758.34;5067385;28;20025;-71
2022/05/24 10:23:12;;;;;;;1.02;0.40;;;;;;;21.97;56.46;97750.81;5067284;28;20025;-71
2022/05/24 10:26:03;;;;;;;2.55;0.40;;;;;;;21.12;57.82;97761.88;5067200;28;20047;-71
2022/05/24 10:29:14;;;;;;;1.88;0.50;;;;;;;19.82;60.87;97765.19;5067123;28;20048;-71
2022/05/24 10:32:02;;;;;;;1.27;0.50;;;;;;;20.18;62.26;97767.97;5067092;28;20045;-71
2022/05/24 10:40:44;;;;;;;2.15;0.50;;;;;;;21.95;57.32;97771.50;5067254;28;20218;-71
2022/05/24 10:43:37;;;;;;;1.00;0.60;;;;;;;22.14;55.67;97761.03;5066904;28;20025;-71
2022/05/24 10:46:15;;;;;;;0.35;0.35;;;;;;;21.69;57.90;97761.94;5066843;28;20032;-71
2022/05/24 10:48:54;;;;;;;1.55;0.60;;;;;;;22.23;57.03;97765.66;5066631;28;20053;-71
2022/05/24 10:51:48;;;;;;;2.75;0.30;;;;;;;23.07;54.72;97772.16;5066792;28;20047;-71
2022/05/24 10:54:38;;;;;;;2.17;0.30;;;;;;;23.10;53.72;97770.06;5066742;28;20224;-71
2022/05/24 10:57:15;;;;;;;0.30;0.30;;;;;;;23.08;55.72;97769.34;5066761;28;20032;-71
2022/05/24 10:59:54;;;;;;;2.83;0.80;;;;;;;22.85;54.21;97777.59;5066553;28;20025;-71
2022/05/24 11:02:25;;;;;;;0.38;0.38;;;;;;;22.75;57.50;97776.63;5066643;28;20351;-71
2022/05/24 11:05:11;;;;;;;1.90;0.60;;;;;;;21.92;57.17;97774.44;5066482;28;20043;-71
2022/05/24 11:07:37;;;;;;;0.70;0.30;;;;;;;21.74;55.69;97773.19;5062475;28;20253;-71
2022/05/24 11:10:07;;;;;;;0.43;0.20;;;;;;;21.61;55.34;97769.72;5066376;28;20032;-71
2022/05/24 11:12:40;;;;;;;2.30;0.40;;;;;;;22.41;53.69;97766.91;5066188;28;20025;-71
2022/05/24 11:15:32;;;;;;;0.73;0.40;;;;;;;23.08;53.76;97763.09;5066197;28;20052;-71
2022/05/24 11:18:02;;;;;;;1.65;0.35;;;;;;;22.73;54.58;97757.13;5066506;28;20207;-71
2022/05/24 11:20:35;;;;;;;0.57;0.32;;;;;;;21.64;57.89;97761.47;5066458;28;20212;-71
2022/05/24 11:23:35;;;;;;;0.73;0.40;;;;;;;22.22;56.70;97755.94;5066372;28;20331;-71
2022/05/24 11:26:24;;;;;;;0.85;0.32;;;;;;;21.88;56.39;97767.59;5062422;28;20063;-71
2022/05/24 11:29:16;;;;;;;0.70;0.20;;;;;;;20.88;56.70;97777.91;5066068;28;20201;-71
2022/05/24 11:31:47;;;;;;;1.63;0.68;;;;;;;21.32;56.35;97771.94;5066052;28;20025;-71
2022/05/24 11:34:26;;;;;;;0.83;0.50;;;;;;;21.53;57.75;97777.47;5066053;28;20053;-71
2022/05/24 11:37:23;;;;;;;2.10;0.60;;;;;;;21.61;57.16;97780.44;5065803;28;20255;-71
2022/05/24 11:39:48;;;;;;;2.08;0.45;;;;;;;21.69;56.05;97786.03;5065885;28;20025;-71
2022/05/24 11:42:23;;;;;;;1.42;0.45;;;;;;;21.76;56.45;97790.00;5065929;28;20029;-71
2022/05/24 11:44:50;;;;;;;0.95;0.30;;;;;;;21.70;55.79;97775.22;5065751;28;20089;-71
2022/05/24 11:47:34;;;;;;;0.45;0.40;;;;;;;21.52;58.52;97781.13;5065732;28;20021;-71
2022/05/24 11:50:03;;;;;;;0.95;0.40;;;;;;;21.26;57.95;97778.63;5065543;28;20063;-71
2022/05/24 11:52:43;;;;;;;1.70;0.30;;;;;;;20.78;56.26;97779.56;5065584;28;20036;-71
2022/05/24 11:55:09;;;;;;;0.52;0.30;;;;;;;21.14;58.56;97792.06;5065426;28;20087;-71
2022/05/24 11:57:40;;;;;;;0.30;0.30;;;;;;;21.33;56.55;97787.06;5065521;28;20127;-71
2022/05/24 12:00:08;;;;;;;1.20;0.52;;;;;;;21.29;59.66;97786.41;5065500;28;20193;-71
2022/05/24 12:07:54;;;;;;;1.40;0.30;;;;;;;21.62;55.70;97792.84;5065321;28;20263;-71
2022/05/24 12:08:37;;;;;;;0.60;0.40;;;;;;;21.91;58.27;97805.75;5065325;28;20059;-71
2022/05/24 12:11:06;;;;;;;0.38;0.20;;;;;;;21.87;56.05;97796.25;5065303;28;20108;-71
2022/05/24 12:13:54;;;;;;;4.50;0.47;;;;;;;21.87;56.40;97812.31;5065198;28;20027;-71
2022/05/24 12:17:01;;;;;;;0.90;0.40;;;;;;;21.52;55.64;97813.28;5064943;28;20032;-71
2022/05/24 12:19:32;;;;;;;1.75;0.52;;;;;;;21.44;56.89;97815.66;5062003;28;20041;-71
2022/05/24 12:22:10;;;;;;;0.30;0.30;;;;;;;21.33;59.38;97817.31;5065077;28;20052;-71
2022/05/24 12:24:36;;;;;;;0.95;0.30;;;;;;;21.32;57.92;97816.59;5064609;28;20025;-71
2022/05/24 12:27:41;;;;;;;1.08;0.43;;;;;;;21.56;56.95;97825.44;5064946;28;20386;-71
2022/05/24 12:30:24;;;;;;;0.60;0.40;;;;;;;21.41;57.23;97823.97;5054268;28;20098;-71
2022/05/24 12:32:52;;;;;;;0.80;0.38;;;;;;;21.14;59.63;97819.66;5064816;28;20029;-71